Time;durP1;ratioP1;P1;durP2;ratioP2;P2;SDS_P1;SDS_P2;PMS_P1;PMS_P2;Temp;Humidity;BMP_temperature;BMP_pressure;BME280_temperature;BME280_humidity;BME280_pressure;Samples;Min_cycle;Max_cycle;Signal;HPM_P1;HPM_P2
2024/01/17 00:01:50;;;;;;;14.75;6.45;;;0.00;99.90;;;;;;5111862;28;20114;-56
2024/01/17 00:04:16;;;;;;;16.15;5.78;;;-0.10;99.90;;;;;;5028581;28;20484;-56
2024/01/17 00:06:41;;;;;;;16.05;6.38;;;0.00;99.90;;;;;;5028562;28;20038;-58
2024/01/17 00:09:08;;;;;;;11.18;5.35;;;0.00;99.90;;;;;;5028796;28;20049;-59
2024/01/17 00:11:33;;;;;;;16.85;6.75;;;0.00;99.90;;;;;;5028668;28;20045;-57
2024/01/17 00:13:59;;;;;;;16.50;6.38;;;0.00;99.90;;;;;;5028444;28;20086;-57
2024/01/17 00:16:25;;;;;;;13.15;6.82;;;-0.10;99.90;;;;;;5028345;28;20056;-57
2024/01/17 00:18:55;;;;;;;17.85;6.65;;;-0.10;99.90;;;;;;5028842;28;20037;-59
2024/01/17 00:21:20;;;;;;;15.20;6.05;;;0.00;99.90;;;;;;5090018;28;20088;-57
2024/01/17 00:23:46;;;;;;;13.88;5.53;;;0.00;99.90;;;;;;5029587;28;20030;-58
2024/01/17 00:26:12;;;;;;;13.93;5.80;;;0.00;99.90;;;;;;5028456;28;20037;-59
2024/01/17 00:28:37;;;;;;;14.10;6.93;;;-0.10;99.90;;;;;;5028529;28;20033;-58
2024/01/17 00:31:03;;;;;;;15.35;6.40;;;-0.10;99.90;;;;;;5028259;28;20038;-56
2024/01/17 00:33:29;;;;;;;14.30;6.72;;;-0.10;99.90;;;;;;5028624;28;20045;-58
2024/01/17 00:35:54;;;;;;;17.27;6.68;;;-0.20;99.90;;;;;;5028141;28;20507;-56
2024/01/17 00:38:20;;;;;;;15.85;5.70;;;-0.20;99.90;;;;;;5039012;28;20462;-56
2024/01/17 00:40:46;;;;;;;15.10;6.93;;;-0.20;99.90;;;;;;5110011;28;20555;-57
2024/01/17 00:43:11;;;;;;;11.32;5.68;;;-0.20;99.90;;;;;;5104282;28;20493;-57
2024/01/17 00:45:37;;;;;;;14.43;6.25;;;-0.30;99.90;;;;;;5097829;28;20035;-57
2024/01/17 00:48:03;;;;;;;14.68;6.20;;;-0.20;99.90;;;;;;5111231;28;20041;-58
2024/01/17 00:50:29;;;;;;;15.48;6.63;;;-0.30;99.90;;;;;;5027783;28;20046;-59
2024/01/17 00:52:54;;;;;;;12.55;6.22;;;-0.30;99.90;;;;;;5028633;28;20865;-56
2024/01/17 00:55:20;;;;;;;12.27;5.57;;;-0.30;99.90;;;;;;5070559;28;20471;-58
2024/01/17 00:57:46;;;;;;;10.38;5.82;;;-0.20;99.90;;;;;;5111463;28;20080;-57
2024/01/17 01:00:12;;;;;;;12.63;5.57;;;-0.30;99.90;;;;;;5111274;28;20084;-56
2024/01/17 01:02:37;;;;;;;16.38;6.40;;;-0.20;99.90;;;;;;5111350;28;20032;-56
2024/01/17 01:05:03;;;;;;;14.57;5.80;;;-0.20;99.90;;;;;;5111092;28;20562;-55
2024/01/17 01:07:29;;;;;;;14.55;5.53;;;-0.20;99.90;;;;;;5100801;28;20048;-59
2024/01/17 01:09:55;;;;;;;15.80;5.72;;;-0.20;99.90;;;;;;5110866;28;20044;-60
2024/01/17 01:12:21;;;;;;;13.38;5.85;;;-0.20;99.90;;;;;;5110654;28;20043;-56
2024/01/17 01:14:46;;;;;;;13.60;6.18;;;-0.20;99.90;;;;;;5111019;28;20035;-57
2024/01/17 01:17:12;;;;;;;13.90;5.95;;;-0.20;99.90;;;;;;5110357;28;20061;-59
2024/01/17 01:19:38;;;;;;;14.65;5.78;;;-0.20;99.90;;;;;;5111319;28;20063;-59
2024/01/17 01:22:04;;;;;;;13.85;6.30;;;-0.20;99.90;;;;;;5111160;28;20042;-57
2024/01/17 01:24:29;;;;;;;14.40;5.47;;;-0.10;99.90;;;;;;5110989;28;20085;-57
2024/01/17 01:26:55;;;;;;;16.73;6.32;;;-0.10;99.90;;;;;;5076401;28;20372;-55
2024/01/17 01:29:20;;;;;;;15.15;6.95;;;-0.20;99.90;;;;;;5061638;28;20478;-55
2024/01/17 01:31:46;;;;;;;15.98;7.50;;;-0.20;99.90;;;;;;5094094;28;20072;-55
2024/01/17 01:34:12;;;;;;;14.20;6.57;;;-0.30;99.90;;;;;;5021034;28;20050;-55
2024/01/17 01:36:37;;;;;;;15.93;7.07;;;-0.30;99.90;;;;;;5085911;28;20039;-58
2024/01/17 01:39:03;;;;;;;16.80;7.28;;;-0.40;99.90;;;;;;5076454;28;20028;-58
2024/01/17 01:41:29;;;;;;;19.23;8.93;;;-0.40;99.90;;;;;;5091754;28;20028;-58
2024/01/17 01:43:54;;;;;;;16.20;7.80;;;-0.50;99.90;;;;;;5106167;28;20501;-56
2024/01/17 01:46:26;;;;;;;19.08;8.00;;;-0.40;99.90;;;;;;5110233;28;20474;-57
2024/01/17 01:48:52;;;;;;;15.55;8.05;;;-0.50;99.90;;;;;;5109614;28;20047;-56
2024/01/17 01:51:20;;;;;;;16.33;7.65;;;-0.20;99.90;;;;;;5031277;28;20046;-57
2024/01/17 01:53:49;;;;;;;20.25;7.78;;;-0.40;99.90;;;;;;5027573;28;20042;-56
2024/01/17 01:56:17;;;;;;;18.33;7.95;;;-0.40;99.90;;;;;;5027512;28;20042;-55
2024/01/17 01:58:45;;;;;;;17.23;8.45;;;-0.40;99.90;;;;;;5026166;28;20034;-59
2024/01/17 02:01:11;;;;;;;15.00;7.85;;;-0.40;99.90;;;;;;5064062;28;20443;-57
2024/01/17 02:03:40;;;;;;;14.38;8.23;;;-0.40;99.90;;;;;;5113955;28;20146;-56
2024/01/17 02:06:06;;;;;;;17.67;8.15;;;-0.40;99.90;;;;;;5114282;28;20176;-55
2024/01/17 02:08:34;;;;;;;16.90;8.38;;;-0.50;99.90;;;;;;5114657;28;20051;-57
2024/01/17 02:11:00;;;;;;;17.65;9.32;;;-0.50;99.90;;;;;;5032278;28;20041;-59
2024/01/17 02:13:26;;;;;;;16.23;8.05;;;-0.60;99.90;;;;;;5030382;28;20051;-55
2024/01/17 02:15:52;;;;;;;19.08;9.32;;;-0.50;99.90;;;;;;5030244;28;20396;-55
2024/01/17 02:18:17;;;;;;;16.50;7.68;;;-0.50;99.90;;;;;;5030658;28;20049;-57
2024/01/17 02:20:43;;;;;;;15.90;8.05;;;-0.60;99.90;;;;;;5030363;28;20094;-58
2024/01/17 02:23:28;;;;;;;17.30;8.48;;;-0.50;99.90;;;;;;5030314;28;20053;-58
2024/01/17 02:25:58;;;;;;;19.23;9.57;;;-0.50;99.90;;;;;;5030216;28;20048;-56
2024/01/17 02:28:27;;;;;;;18.08;7.93;;;-0.70;99.90;;;;;;5103629;28;20031;-57
2024/01/17 02:30:53;;;;;;;18.08;9.52;;;-0.60;99.90;;;;;;5113642;28;20043;-57
2024/01/17 02:33:20;;;;;;;21.25;9.90;;;-0.70;99.90;;;;;;5114146;27;20089;-58
2024/01/17 02:35:45;;;;;;;16.45;8.13;;;-0.50;99.90;;;;;;5114066;28;20036;-57
2024/01/17 02:38:11;;;;;;;17.42;8.38;;;-0.70;99.90;;;;;;5029825;28;20053;-58
2024/01/17 02:40:37;;;;;;;19.88;8.75;;;-0.70;99.90;;;;;;5030321;28;20086;-58
2024/01/17 02:43:04;;;;;;;20.08;9.32;;;-0.50;99.90;;;;;;5030074;28;20038;-59
2024/01/17 02:45:30;;;;;;;16.13;9.05;;;-0.50;99.90;;;;;;5104605;28;20031;-58
2024/01/17 02:47:56;;;;;;;16.80;8.45;;;-0.60;99.90;;;;;;5113701;28;20101;-57
2024/01/17 02:50:22;;;;;;;19.23;8.77;;;-0.60;99.90;;;;;;5113689;28;20107;-57
2024/01/17 02:52:48;;;;;;;15.80;8.35;;;-0.60;99.90;;;;;;5112126;27;20498;-57
2024/01/17 02:55:17;;;;;;;20.52;9.00;;;-0.60;99.90;;;;;;5113195;28;20075;-55
2024/01/17 02:57:43;;;;;;;19.02;9.30;;;-0.50;99.90;;;;;;5113429;28;20035;-53
2024/01/17 03:00:09;;;;;;;16.65;9.88;;;-0.70;99.90;;;;;;5113315;28;20036;-55
2024/01/17 03:02:35;;;;;;;20.50;9.55;;;-0.50;99.90;;;;;;5113186;28;20031;-55
2024/01/17 03:05:03;;;;;;;18.88;9.93;;;-0.70;99.90;;;;;;5113146;27;20039;-57
2024/01/17 03:07:29;;;;;;;20.65;10.82;;;-0.50;99.90;;;;;;5112619;27;20075;-59
2024/01/17 03:09:55;;;;;;;18.67;10.00;;;-0.30;99.90;;;;;;5113371;28;20065;-56
2024/01/17 03:12:21;;;;;;;22.92;9.80;;;-0.60;99.90;;;;;;5111888;28;20039;-56
2024/01/17 03:14:47;;;;;;;21.80;11.80;;;-0.70;99.90;;;;;;5030134;28;20050;-56
2024/01/17 03:17:13;;;;;;;23.52;10.52;;;-0.60;99.90;;;;;;5053280;28;20144;-55
2024/01/17 03:19:39;;;;;;;18.23;10.00;;;-0.70;99.90;;;;;;5112985;28;20042;-56
2024/01/17 03:22:05;;;;;;;21.60;10.95;;;-0.60;99.90;;;;;;5112268;28;20115;-56
2024/01/17 03:24:30;;;;;;;16.67;10.18;;;-0.70;99.90;;;;;;5113044;28;20036;-56
2024/01/17 03:26:56;;;;;;;19.92;10.82;;;-0.60;99.90;;;;;;5112976;28;20051;-55
2024/01/17 03:29:22;;;;;;;18.17;10.40;;;-0.40;99.90;;;;;;5112929;28;20039;-56
2024/01/17 03:31:47;;;;;;;20.63;10.82;;;-0.60;99.90;;;;;;5032252;28;20070;-56
2024/01/17 03:34:13;;;;;;;24.95;11.27;;;-0.80;99.90;;;;;;5067618;28;20043;-58
2024/01/17 03:36:39;;;;;;;25.08;11.45;;;-0.70;99.90;;;;;;5104096;28;20570;-56
2024/01/17 03:39:05;;;;;;;22.67;11.32;;;-0.70;99.90;;;;;;5106618;28;20110;-56
2024/01/17 03:41:31;;;;;;;21.30;11.50;;;-0.80;99.90;;;;;;5099312;28;20113;-55
2024/01/17 03:43:58;;;;;;;21.58;10.95;;;-0.90;99.90;;;;;;5110871;28;20206;-55
2024/01/17 03:46:24;;;;;;;22.13;11.65;;;-0.80;99.90;;;;;;5112075;28;20028;-58
2024/01/17 03:48:50;;;;;;;22.85;11.98;;;-0.90;99.90;;;;;;5111798;28;20047;-56
2024/01/17 03:51:16;;;;;;;20.38;10.50;;;-0.90;99.90;;;;;;5112201;28;20043;-55
2024/01/17 03:53:42;;;;;;;20.60;11.38;;;-0.50;99.90;;;;;;5105562;28;20043;-58
2024/01/17 03:56:08;;;;;;;23.13;11.80;;;-0.70;99.90;;;;;;5108961;28;20046;-57
2024/01/17 03:58:33;;;;;;;20.77;11.25;;;-0.90;99.90;;;;;;5112254;28;20036;-54
2024/01/17 04:01:02;;;;;;;20.05;10.82;;;-1.00;99.90;;;;;;5111930;28;20122;-57
2024/01/17 04:03:28;;;;;;;21.23;11.88;;;-0.90;99.90;;;;;;5112138;28;20067;-55
2024/01/17 04:05:54;;;;;;;21.70;11.88;;;-0.80;99.90;;;;;;5073107;28;20072;-57
2024/01/17 04:08:19;;;;;;;19.73;11.52;;;-0.90;99.90;;;;;;5010836;28;20061;-54
2024/01/17 04:10:45;;;;;;;28.08;12.75;;;-0.80;99.90;;;;;;5028709;28;20060;-53
2024/01/17 04:13:11;;;;;;;20.80;11.70;;;-1.00;99.90;;;;;;5028802;28;20037;-54
2024/01/17 04:15:36;;;;;;;21.15;10.88;;;-0.90;99.90;;;;;;5026896;28;20038;-57
2024/01/17 04:18:02;;;;;;;19.70;11.90;;;-0.90;99.90;;;;;;5028746;28;20057;-55
2024/01/17 04:20:28;;;;;;;21.05;11.35;;;-0.90;99.90;;;;;;5059576;28;20036;-56
2024/01/17 04:22:54;;;;;;;24.30;11.70;;;-0.90;99.90;;;;;;5111401;28;20088;-57
2024/01/17 04:25:20;;;;;;;24.23;11.20;;;-1.00;99.90;;;;;;5032272;28;20042;-58
2024/01/17 04:27:45;;;;;;;22.63;11.23;;;-0.90;99.90;;;;;;5027145;28;20041;-54
2024/01/17 04:30:12;;;;;;;18.70;10.10;;;-0.90;99.90;;;;;;5028646;28;20047;-57
2024/01/17 04:32:37;;;;;;;21.65;10.88;;;-0.80;99.90;;;;;;5028604;28;20048;-56
2024/01/17 04:35:04;;;;;;;19.20;10.07;;;-0.80;99.90;;;;;;5057702;28;20565;-55
2024/01/17 04:37:30;;;;;;;23.70;10.98;;;-0.80;99.90;;;;;;5035887;28;20039;-57
2024/01/17 04:39:57;;;;;;;23.20;11.27;;;-1.00;99.90;;;;;;5111609;28;20110;-55
2024/01/17 04:42:23;;;;;;;22.77;11.02;;;-1.00;99.90;;;;;;5111367;28;20050;-57
2024/01/17 04:44:49;;;;;;;18.00;10.45;;;-0.80;99.90;;;;;;5109888;28;20031;-55
2024/01/17 04:47:15;;;;;;;22.63;10.52;;;-0.80;99.90;;;;;;5032456;28;20050;-56
2024/01/17 04:49:42;;;;;;;20.58;10.55;;;-0.90;99.90;;;;;;5111590;28;20531;-55
2024/01/17 04:52:09;;;;;;;17.77;10.50;;;-0.90;99.90;;;;;;5111479;28;20079;-53
2024/01/17 04:54:35;;;;;;;21.25;11.23;;;-0.80;99.90;;;;;;5111382;28;20631;-55
2024/01/17 04:57:01;;;;;;;18.83;10.15;;;-0.90;99.90;;;;;;5111263;28;20047;-56
2024/01/17 04:59:27;;;;;;;21.73;10.15;;;-1.00;99.90;;;;;;5111454;28;20575;-54
2024/01/17 05:01:52;;;;;;;22.08;10.25;;;-0.90;99.90;;;;;;5111327;28;20038;-55
2024/01/17 05:04:18;;;;;;;19.05;9.38;;;-0.80;99.90;;;;;;5111470;28;20093;-56
2024/01/17 05:06:44;;;;;;;16.92;10.25;;;-0.90;99.90;;;;;;5110901;28;20038;-56
2024/01/17 05:09:11;;;;;;;19.48;9.35;;;-0.80;99.90;;;;;;5107093;28;20073;-56
2024/01/17 05:11:37;;;;;;;19.88;10.35;;;-0.90;99.90;;;;;;5110859;28;20039;-57
2024/01/17 05:14:03;;;;;;;20.05;9.65;;;-0.90;99.90;;;;;;5111304;28;20088;-56
2024/01/17 05:16:29;;;;;;;16.35;9.52;;;-0.70;99.90;;;;;;5110893;28;20043;-54
2024/01/17 05:18:55;;;;;;;18.33;9.90;;;-0.90;99.90;;;;;;5027925;28;20552;-56
2024/01/17 05:21:21;;;;;;;19.70;10.60;;;-0.90;99.90;;;;;;5027763;28;20396;-57
2024/01/17 05:23:46;;;;;;;19.90;9.77;;;-0.70;99.90;;;;;;5027658;28;20097;-58
2024/01/17 05:26:12;;;;;;;18.60;9.98;;;-0.90;99.90;;;;;;5027908;28;20087;-57
2024/01/17 05:28:38;;;;;;;21.08;9.68;;;-1.00;99.90;;;;;;5027490;28;20112;-55
2024/01/17 05:31:04;;;;;;;19.35;10.00;;;-1.00;99.90;;;;;;5027943;28;20038;-55
2024/01/17 05:33:30;;;;;;;19.95;10.35;;;-1.00;99.90;;;;;;5032000;28;20044;-53
2024/01/17 05:35:56;;;;;;;19.02;9.25;;;-1.00;99.90;;;;;;5109516;28;20565;-53
2024/01/17 05:38:22;;;;;;;19.95;10.00;;;-0.90;99.90;;;;;;5114790;28;20114;-56
2024/01/17 05:40:47;;;;;;;20.10;10.15;;;-0.90;99.90;;;;;;5114928;28;20373;-56
2024/01/17 05:43:13;;;;;;;20.75;10.18;;;-0.90;99.90;;;;;;5114599;28;20035;-54
2024/01/17 05:45:39;;;;;;;18.88;9.95;;;-1.00;99.90;;;;;;5114591;28;20075;-58
2024/01/17 05:48:05;;;;;;;23.75;9.65;;;-1.10;99.90;;;;;;5114514;28;20040;-53
2024/01/17 05:50:31;;;;;;;19.70;10.00;;;-1.00;99.90;;;;;;5114496;28;20043;-55
2024/01/17 05:52:56;;;;;;;16.42;9.68;;;-1.20;99.90;;;;;;5114898;28;20043;-56
2024/01/17 05:55:22;;;;;;;18.40;9.38;;;-1.10;99.90;;;;;;5114751;27;20042;-54
2024/01/17 05:57:50;;;;;;;20.52;10.30;;;-1.30;99.90;;;;;;5112447;28;20043;-55
2024/01/17 06:00:18;;;;;;;21.98;8.85;;;-1.30;99.90;;;;;;5030291;28;20472;-56
2024/01/17 06:02:44;;;;;;;20.88;9.60;;;-1.30;99.90;;;;;;5030848;28;20037;-57
2024/01/17 06:05:10;;;;;;;17.60;10.18;;;-1.30;99.90;;;;;;5030959;28;20091;-57
2024/01/17 06:07:36;;;;;;;24.40;8.77;;;-1.40;99.90;;;;;;5030427;28;20057;-57
2024/01/17 06:10:03;;;;;;;19.98;9.18;;;-1.50;99.90;;;;;;5030534;28;20053;-55
2024/01/17 06:12:28;;;;;;;19.23;9.60;;;-1.40;99.90;;;;;;5030602;28;20037;-56
2024/01/17 06:14:54;;;;;;;17.90;10.18;;;-1.50;99.90;;;;;;5052698;28;20031;-55
2024/01/17 06:17:20;;;;;;;17.23;8.45;;;-1.50;99.90;;;;;;5113667;28;20035;-53
2024/01/17 06:19:45;;;;;;;19.20;9.48;;;-1.50;99.90;;;;;;5114087;28;20027;-55
2024/01/17 06:22:12;;;;;;;21.27;9.65;;;-1.50;99.90;;;;;;5114215;28;20049;-55
2024/01/17 06:24:37;;;;;;;17.88;8.98;;;-1.50;99.90;;;;;;5113734;28;20052;-54
2024/01/17 06:27:03;;;;;;;20.80;8.88;;;-1.60;99.90;;;;;;5113793;28;20122;-54
2024/01/17 06:29:30;;;;;;;21.00;9.70;;;-1.70;99.90;;;;;;5114083;28;20043;-54
2024/01/17 06:31:57;;;;;;;24.08;8.82;;;-1.50;99.90;;;;;;5113896;28;20044;-54
2024/01/17 06:34:22;;;;;;;20.38;9.43;;;-1.70;99.90;;;;;;5113773;28;20032;-55
2024/01/17 06:36:48;;;;;;;21.90;9.38;;;-1.60;99.90;;;;;;5031155;28;20052;-56
2024/01/17 06:39:16;;;;;;;18.35;9.07;;;-1.70;99.90;;;;;;5030496;28;20037;-56
2024/01/17 06:41:43;;;;;;;17.42;8.60;;;-1.70;99.90;;;;;;5074102;28;20070;-53
2024/01/17 06:44:09;;;;;;;16.50;8.02;;;-1.70;99.90;;;;;;5113256;28;20051;-56
2024/01/17 06:46:36;;;;;;;20.30;8.52;;;-1.60;99.90;;;;;;5105916;28;20372;-53
2024/01/17 06:49:02;;;;;;;22.40;9.02;;;-1.80;99.90;;;;;;5113505;28;20482;-57
2024/01/17 06:51:28;;;;;;;16.58;8.57;;;-1.70;99.90;;;;;;5028714;28;20090;-56
2024/01/17 06:53:54;;;;;;;14.60;8.68;;;-1.80;99.90;;;;;;5030165;28;20433;-56
2024/01/17 06:56:20;;;;;;;16.60;8.82;;;-1.80;99.90;;;;;;5027974;28;20052;-55
2024/01/17 06:58:45;;;;;;;19.88;9.07;;;-1.60;99.90;;;;;;5029725;28;20503;-54
2024/01/17 07:01:11;;;;;;;18.00;8.52;;;-1.60;99.90;;;;;;5029902;28;20042;-56
2024/01/17 07:03:37;;;;;;;16.77;7.55;;;-1.70;99.90;;;;;;5075748;28;20054;-57
2024/01/17 07:06:04;;;;;;;18.83;7.95;;;-1.80;99.90;;;;;;5113076;28;20042;-57
2024/01/17 07:08:30;;;;;;;15.63;8.98;;;-1.70;99.90;;;;;;5112752;28;20055;-56
2024/01/17 07:10:56;;;;;;;16.15;7.63;;;-1.70;99.90;;;;;;5113387;28;20039;-56
2024/01/17 07:13:21;;;;;;;15.27;7.88;;;-1.80;99.90;;;;;;5112990;28;20036;-55
2024/01/17 07:15:47;;;;;;;15.90;8.05;;;-1.80;99.90;;;;;;5112824;28;20387;-57
2024/01/17 07:18:13;;;;;;;15.93;7.35;;;-1.70;99.90;;;;;;5112996;28;20987;-56
2024/01/17 07:20:39;;;;;;;16.15;8.50;;;-1.80;99.90;;;;;;5113231;28;20032;-57
2024/01/17 07:23:07;;;;;;;17.52;8.35;;;-1.90;99.90;;;;;;5113022;28;20035;-57
2024/01/17 07:25:33;;;;;;;19.98;8.68;;;-1.70;99.90;;;;;;5113155;28;20042;-55
2024/01/17 07:27:58;;;;;;;17.40;8.32;;;-1.90;99.90;;;;;;5112734;28;20404;-56
2024/01/17 07:30:24;;;;;;;18.25;8.80;;;-1.30;99.90;;;;;;5105152;28;20040;-56
2024/01/17 07:32:50;;;;;;;16.73;7.82;;;-1.80;99.90;;;;;;5112538;28;20039;-56
2024/01/17 07:35:15;;;;;;;14.05;7.95;;;-1.70;99.90;;;;;;5112668;28;20039;-58
2024/01/17 07:37:41;;;;;;;14.80;7.65;;;-1.90;99.90;;;;;;5112694;28;20089;-58
2024/01/17 07:40:09;;;;;;;16.70;7.72;;;-1.80;99.90;;;;;;5111849;28;20071;-54
2024/01/17 07:42:34;;;;;;;17.90;9.13;;;-1.80;99.90;;;;;;5101966;28;20260;-57
2024/01/17 07:45:00;;;;;;;15.90;8.05;;;-1.80;99.90;;;;;;5094373;28;20081;-58
2024/01/17 07:47:26;;;;;;;15.23;7.25;;;-1.80;99.90;;;;;;5111908;28;20050;-56
2024/01/17 07:49:52;;;;;;;18.35;9.00;;;-1.90;99.90;;;;;;5112029;28;20040;-56
2024/01/17 07:52:17;;;;;;;18.48;8.43;;;-1.80;99.90;;;;;;5112042;28;20040;-56
2024/01/17 07:54:43;;;;;;;16.00;8.18;;;-2.00;99.90;;;;;;5010585;28;20087;-56
2024/01/17 07:57:10;;;;;;;15.13;6.85;;;-1.80;99.90;;;;;;5005035;28;20040;-55
2024/01/17 07:59:36;;;;;;;18.10;7.38;;;-2.00;99.90;;;;;;5006344;28;20099;-57
2024/01/17 08:02:03;;;;;;;14.60;7.88;;;-1.90;99.90;;;;;;5016395;28;20030;-54
2024/01/17 08:04:28;;;;;;;19.35;7.57;;;-1.80;99.90;;;;;;5017299;28;20378;-58
2024/01/17 08:06:54;;;;;;;16.35;7.97;;;-2.00;99.90;;;;;;5011875;28;20386;-56
2024/01/17 08:09:25;;;;;;;19.15;7.90;;;-1.80;99.90;;;;;;5002343;28;20398;-54
2024/01/17 08:11:53;;;;;;;18.88;8.40;;;-2.00;99.90;;;;;;4999256;28;20041;-57
2024/01/17 08:14:19;;;;;;;16.27;7.60;;;-1.90;99.90;;;;;;5021442;28;20033;-56
2024/01/17 08:16:46;;;;;;;21.85;8.45;;;-2.00;99.90;;;;;;5020134;28;20061;-56
2024/01/17 08:19:12;;;;;;;18.23;8.73;;;-2.00;99.90;;;;;;5023512;28;20131;-58
2024/01/17 08:21:38;;;;;;;17.05;7.55;;;-1.80;99.90;;;;;;5018343;28;21147;-57
2024/01/17 08:24:04;;;;;;;13.38;7.70;;;-1.80;99.90;;;;;;5009940;28;20143;-57
2024/01/17 08:26:30;;;;;;;20.77;8.35;;;-1.80;99.90;;;;;;5028512;28;22612;-57
2024/01/17 08:28:56;;;;;;;21.35;8.63;;;-1.80;99.90;;;;;;5021606;28;20085;-56
2024/01/17 08:31:22;;;;;;;15.85;8.35;;;-1.90;99.90;;;;;;5017253;28;20042;-57
2024/01/17 08:33:49;;;;;;;12.18;8.05;;;-1.70;99.90;;;;;;5014208;28;20487;-55
2024/01/17 08:36:15;;;;;;;17.20;7.47;;;-1.90;99.90;;;;;;5018847;28;20150;-55
2024/01/17 08:38:41;;;;;;;19.52;8.52;;;-1.20;99.90;;;;;;5020107;28;20190;-54
2024/01/17 08:41:10;;;;;;;18.08;8.88;;;-1.80;99.90;;;;;;5031215;28;20083;-56
2024/01/17 08:43:36;;;;;;;19.92;9.00;;;-1.80;99.90;;;;;;5016222;28;20384;-58
2024/01/17 08:46:02;;;;;;;17.63;9.00;;;-1.80;99.90;;;;;;5016818;28;20041;-57
2024/01/17 08:48:28;;;;;;;16.70;9.13;;;-1.60;99.90;;;;;;5013824;28;20040;-55
2024/01/17 08:50:55;;;;;;;18.25;9.27;;;-1.40;99.90;;;;;;5037732;28;20039;-55
2024/01/17 08:53:21;;;;;;;15.95;9.02;;;-1.50;99.90;;;;;;5024893;28;20226;-57
2024/01/17 08:55:48;;;;;;;17.10;8.75;;;-1.60;99.90;;;;;;5012255;28;20050;-57
2024/01/17 08:58:13;;;;;;;17.23;8.45;;;-1.60;99.90;;;;;;5009772;28;20045;-56
2024/01/17 09:00:39;;;;;;;20.30;9.13;;;-1.60;99.90;;;;;;5018711;28;20038;-55
2024/01/17 09:03:05;;;;;;;17.00;9.07;;;-1.60;99.90;;;;;;4987824;28;20091;-54
2024/01/17 09:05:31;;;;;;;19.85;8.90;;;-1.40;99.90;;;;;;5016165;28;20038;-56
2024/01/17 09:07:58;;;;;;;19.80;9.45;;;-1.50;99.90;;;;;;5019367;28;20050;-59
2024/01/17 09:10:24;;;;;;;19.35;9.07;;;-1.60;99.90;;;;;;5002851;28;20038;-55
2024/01/17 09:12:50;;;;;;;14.02;8.30;;;-1.40;99.90;;;;;;5023307;28;20037;-55
2024/01/17 09:15:16;;;;;;;20.45;9.20;;;-1.40;99.90;;;;;;5023884;28;20042;-54
2024/01/17 09:17:43;;;;;;;19.30;9.48;;;-0.90;99.90;;;;;;5026196;28;20060;-56
2024/01/17 09:20:09;;;;;;;21.73;9.57;;;-1.50;99.90;;;;;;5015970;28;20043;-56
2024/01/17 09:22:35;;;;;;;16.55;8.90;;;-1.40;99.90;;;;;;5005994;28;20097;-55
2024/01/17 09:25:00;;;;;;;18.17;8.82;;;-1.30;99.90;;;;;;5032806;28;20034;-56
2024/01/17 09:27:27;;;;;;;18.00;9.45;;;-1.30;99.90;;;;;;5031458;28;20041;-56
2024/01/17 09:29:53;;;;;;;18.40;9.30;;;-1.20;99.90;;;;;;5029853;28;20026;-57
2024/01/17 09:32:18;;;;;;;15.65;7.70;;;-1.20;99.90;;;;;;5042587;28;20043;-56
2024/01/17 09:34:47;;;;;;;21.85;9.10;;;-1.20;99.90;;;;;;5007181;28;20033;-58
2024/01/17 09:37:14;;;;;;;14.38;7.97;;;-1.10;99.90;;;;;;5022049;28;20404;-56
2024/01/17 09:39:39;;;;;;;21.15;8.88;;;-1.10;99.90;;;;;;5006253;28;20102;-56
2024/01/17 09:42:06;;;;;;;17.92;8.45;;;-1.10;99.90;;;;;;5032856;28;20034;-56
2024/01/17 09:44:34;;;;;;;13.93;7.65;;;-1.20;99.90;;;;;;5022497;27;20166;-57
2024/01/17 09:47:00;;;;;;;18.48;8.88;;;-1.20;99.90;;;;;;5032035;28;20110;-57
2024/01/17 09:49:29;;;;;;;17.95;8.43;;;-1.20;99.90;;;;;;5021867;28;20051;-55
2024/01/17 09:51:55;;;;;;;25.15;8.13;;;-1.20;99.90;;;;;;5031401;28;20081;-57
2024/01/17 09:54:25;;;;;;;16.27;8.05;;;-1.10;99.90;;;;;;5025997;28;20106;-56
2024/01/17 09:56:51;;;;;;;19.20;9.25;;;-1.00;99.90;;;;;;5015299;28;20056;-59
2024/01/17 09:59:23;;;;;;;15.93;8.80;;;-1.10;99.90;;;;;;5024545;28;20121;-55
2024/01/17 10:01:48;;;;;;;18.08;8.02;;;-0.90;99.90;;;;;;5023387;28;20182;-58
2024/01/17 10:04:15;;;;;;;17.63;9.10;;;-1.00;99.90;;;;;;5018075;28;20129;-56
2024/01/17 10:06:45;;;;;;;15.48;8.40;;;-1.00;99.90;;;;;;5014254;28;20066;-58
2024/01/17 10:09:11;;;;;;;14.48;8.35;;;-0.80;99.90;;;;;;5011501;28;20058;-57
2024/01/17 10:11:38;;;;;;;20.13;8.52;;;-0.80;99.90;;;;;;5019855;28;20053;-57
2024/01/17 10:14:04;;;;;;;14.85;7.90;;;-0.90;99.90;;;;;;5021950;28;20070;-55
2024/01/17 10:16:31;;;;;;;16.05;8.02;;;-0.30;99.90;;;;;;5023185;28;20059;-55
2024/01/17 10:18:58;;;;;;;16.55;8.93;;;-0.70;99.90;;;;;;5025148;28;20028;-57
2024/01/17 10:21:23;;;;;;;17.05;8.82;;;-0.70;99.90;;;;;;5025922;28;20043;-56
2024/01/17 10:23:49;;;;;;;16.40;9.40;;;-0.80;99.90;;;;;;5025107;28;20028;-53
2024/01/17 10:26:15;;;;;;;20.00;8.70;;;-0.70;99.90;;;;;;5008709;28;20560;-57
2024/01/17 10:28:41;;;;;;;16.50;7.60;;;-0.80;99.90;;;;;;5002544;28;20085;-55
2024/01/17 10:31:06;;;;;;;16.67;8.13;;;-0.60;99.90;;;;;;5029861;28;20036;-53
2024/01/17 10:33:32;;;;;;;14.70;7.28;;;-0.70;99.90;;;;;;5028060;28;20094;-56
2024/01/17 10:36:02;;;;;;;16.40;7.95;;;-0.60;99.90;;;;;;5028457;28;20074;-52
2024/01/17 10:38:31;;;;;;;13.85;8.18;;;-0.70;99.90;;;;;;5017860;28;20041;-53
2024/01/17 10:41:08;;;;;;;16.83;8.65;;;-0.70;99.90;;;;;;5038542;28;20043;-54
2024/01/17 10:43:52;;;;;;;15.00;7.75;;;-0.50;99.90;;;;;;5020849;28;20095;-56
2024/01/17 10:46:18;;;;;;;18.48;8.18;;;-0.60;99.90;;;;;;5021373;28;20561;-55
2024/01/17 10:48:44;;;;;;;13.90;7.15;;;-0.50;99.90;;;;;;5025148;28;20046;-54
2024/01/17 10:51:22;;;;;;;16.45;7.85;;;-0.50;99.90;;;;;;5029154;28;20034;-54
2024/01/17 10:53:49;;;;;;;14.88;8.07;;;-0.50;99.90;;;;;;5026718;28;20034;-54
2024/01/17 10:56:20;;;;;;;14.77;7.85;;;-0.50;99.90;;;;;;5023426;28;20041;-54
2024/01/17 10:58:53;;;;;;;17.08;8.85;;;-0.40;99.90;;;;;;5017613;28;20115;-55
2024/01/17 11:01:32;;;;;;;17.38;7.72;;;-0.40;99.90;;;;;;5030171;28;20035;-54
2024/01/17 11:04:07;;;;;;;16.50;8.30;;;-0.30;99.90;;;;;;5028379;28;20044;-54
2024/01/17 11:06:34;;;;;;;14.75;7.82;;;-0.40;99.90;;;;;;4989210;28;20034;-54
2024/01/17 11:09:01;;;;;;;18.45;8.23;;;-0.40;99.90;;;;;;5014767;28;20062;-55
2024/01/17 11:11:29;;;;;;;18.27;8.13;;;-0.20;99.90;;;;;;5018349;28;20133;-55
2024/01/17 11:13:56;;;;;;;17.00;9.13;;;-0.30;99.90;;;;;;5022573;28;20096;-53
2024/01/17 11:16:23;;;;;;;21.15;8.63;;;-0.30;99.90;;;;;;5029060;28;20040;-56
2024/01/17 11:18:50;;;;;;;13.93;7.13;;;-0.30;99.90;;;;;;5081575;28;20038;-54
2024/01/17 11:21:18;;;;;;;19.90;7.32;;;-0.20;99.90;;;;;;5018018;28;20035;-53
2024/01/17 11:24:00;;;;;;;20.60;9.45;;;-0.30;99.90;;;;;;5079364;28;20082;-55
2024/01/17 11:26:30;;;;;;;14.05;7.60;;;-0.20;99.90;;;;;;5073732;28;20110;-51
2024/01/17 11:29:08;;;;;;;15.85;7.85;;;-0.20;99.90;;;;;;5012752;28;20045;-54
2024/01/17 11:31:58;;;;;;;14.60;7.50;;;-0.20;99.90;;;;;;5006789;28;20049;-56
2024/01/17 11:34:24;;;;;;;15.65;7.88;;;-0.20;99.90;;;;;;5082334;28;20446;-54
2024/01/17 11:36:49;;;;;;;16.92;8.80;;;-0.20;99.90;;;;;;5013985;28;20121;-53
2024/01/17 11:39:17;;;;;;;17.02;8.88;;;-0.30;99.90;;;;;;5056644;28;20065;-54
2024/01/17 11:41:44;;;;;;;18.52;7.80;;;-0.20;99.90;;;;;;5005491;28;20040;-56
2024/01/17 11:44:14;;;;;;;15.23;7.65;;;-0.20;99.90;;;;;;5049607;28;20118;-56
2024/01/17 11:46:40;;;;;;;16.70;8.18;;;-0.20;99.90;;;;;;5078939;28;20573;-55
2024/01/17 11:49:09;;;;;;;14.57;7.75;;;0.10;99.90;;;;;;5073342;28;20039;-56
2024/01/17 11:51:36;;;;;;;14.20;7.45;;;-0.20;99.90;;;;;;5043259;28;20055;-57
2024/01/17 11:54:06;;;;;;;15.60;7.53;;;-0.10;99.90;;;;;;5050884;28;20121;-52
2024/01/17 11:56:32;;;;;;;16.73;8.10;;;-0.10;99.90;;;;;;4999848;28;20061;-52
2024/01/17 11:59:09;;;;;;;14.73;7.57;;;-0.20;99.90;;;;;;5051419;28;20030;-56
2024/01/17 12:01:35;;;;;;;17.50;7.35;;;-0.10;99.90;;;;;;5072320;28;20052;-56
2024/01/17 12:04:13;;;;;;;16.88;7.60;;;-0.10;99.90;;;;;;5062363;28;20047;-55
2024/01/17 12:06:46;;;;;;;13.60;7.93;;;0.00;99.90;;;;;;5049631;28;20048;-55
2024/01/17 12:09:18;;;;;;;13.77;7.38;;;-0.10;99.90;;;;;;5061855;28;20131;-54
2024/01/17 12:11:45;;;;;;;14.98;7.53;;;0.00;99.90;;;;;;5070353;28;20747;-57
2024/01/17 12:14:10;;;;;;;17.65;7.75;;;0.00;99.90;;;;;;5083216;28;20139;-51
2024/01/17 12:16:36;;;;;;;18.73;8.05;;;0.00;99.90;;;;;;5083928;28;20132;-56
2024/01/17 12:19:02;;;;;;;19.05;8.60;;;0.00;99.90;;;;;;5067041;28;20423;-56
2024/01/17 12:21:30;;;;;;;18.80;8.10;;;0.00;99.90;;;;;;5058360;28;20036;-57
2024/01/17 12:23:56;;;;;;;14.98;8.02;;;0.10;99.90;;;;;;5018402;28;20061;-56
2024/01/17 12:26:21;;;;;;;17.02;7.63;;;0.10;99.90;;;;;;5080811;28;20041;-57
2024/01/17 12:28:47;;;;;;;17.23;7.85;;;0.10;99.90;;;;;;5069318;28;20028;-59
2024/01/17 12:31:16;;;;;;;18.92;8.65;;;0.00;99.90;;;;;;5066662;28;20043;-55
2024/01/17 12:33:42;;;;;;;13.80;8.38;;;0.00;99.90;;;;;;5048247;28;20033;-56